sensor_id;sensor_type;location;lat;lon;timestamp;pressure;altitude;pressure_sealevel;temperature;humidity
17950;BME280;9100;48.700;9.316;2023-05-16T00:00:50;97421.1;;;13.96;100
17950;BME280;9100;48.700;9.316;2023-05-16T00:01:50;97422.29999999999;;;13.94;100
17950;BME280;9100;48.700;9.316;2023-05-16T00:02:50;97417.5;;;13.91;100
17950;BME280;9100;48.700;9.316;2023-05-16T00:03:50;97420.7;;;13.86;100
17950;BME280;9100;48.700;9.316;2023-05-16T00:04:50;97418.8;;;13.82;100
17950;BME280;9100;48.700;9.316;2023-05-16T00:04:52;97414.4;;;13.82;100
17950;BME280;9100;48.700;9.316;2023-05-16T00:05:50;97418.2;;;13.8;100
17950;BME280;9100;48.700;9.316;2023-05-16T00:06:50;97413.5;;;13.77;100
17950;BME280;9100;48.700;9.316;2023-05-16T00:07:50;97421.5;;;13.74;100
17950;BME280;9100;48.700;9.316;2023-05-16T00:08:50;97412.7;;;13.7;100
17950;BME280;9100;48.700;9.316;2023-05-16T00:09:50;97403.59999999999;;;13.6;100
17950;BME280;9100;48.700;9.316;2023-05-16T00:09:52;97416.2;;;13.69;100
17950;BME280;9100;48.700;9.316;2023-05-16T00:10:50;97414.9;;;13.66;100
17950;BME280;9100;48.700;9.316;2023-05-16T00:11:50;97323.8;;;13.11;100
17950;BME280;9100;48.700;9.316;2023-05-16T00:12:50;97403.2;;;13.64;100
17950;BME280;9100;48.700;9.316;2023-05-16T00:13:50;97410.90000000001;;;13.64;100
17950;BME280;9100;48.700;9.316;2023-05-16T00:14:50;97416.09999999999;;;13.64;100
17950;BME280;9100;48.700;9.316;2023-05-16T00:14:53;97408.3;;;13.64;100
17950;BME280;9100;48.700;9.316;2023-05-16T00:15:50;97410.5;;;13.67;100
17950;BME280;9100;48.700;9.316;2023-05-16T00:16:50;97407.4;;;13.65;100
17950;BME280;9100;48.700;9.316;2023-05-16T00:17:50;97413.3;;;13.65;100
17950;BME280;9100;48.700;9.316;2023-05-16T00:18:50;97408.6;;;13.62;100
17950;BME280;9100;48.700;9.316;2023-05-16T00:19:50;97410;;;13.58;100
17950;BME280;9100;48.700;9.316;2023-05-16T00:19:53;97416.9;;;13.57;100
17950;BME280;9100;48.700;9.316;2023-05-16T00:20:50;97411.1;;;13.55;100
17950;BME280;9100;48.700;9.316;2023-05-16T00:21:50;97413.09999999999;;;13.53;100
17950;BME280;9100;48.700;9.316;2023-05-16T00:22:50;97411.2;;;13.49;100
17950;BME280;9100;48.700;9.316;2023-05-16T00:23:50;97408.4;;;13.44;100
17950;BME280;9100;48.700;9.316;2023-05-16T00:24:50;97415.7;;;13.4;100
17950;BME280;9100;48.700;9.316;2023-05-16T00:24:53;97402.9;;;13.4;100
17950;BME280;9100;48.700;9.316;2023-05-16T00:25:50;97410.79999999999;;;13.39;100
17950;BME280;9100;48.700;9.316;2023-05-16T00:26:50;97406.7;;;13.38;100
17950;BME280;9100;48.700;9.316;2023-05-16T00:27:50;97401.9;;;13.35;100
17950;BME280;9100;48.700;9.316;2023-05-16T00:28:50;97416;;;13.32;100
17950;BME280;9100;48.700;9.316;2023-05-16T00:29:50;97408.3;;;13.32;100
17950;BME280;9100;48.700;9.316;2023-05-16T00:29:52;97406.7;;;13.31;100
17950;BME280;9100;48.700;9.316;2023-05-16T00:30:50;97369;;;13.05;100
17950;BME280;9100;48.700;9.316;2023-05-16T00:31:50;97411.40000000001;;;13.34;100
17950;BME280;9100;48.700;9.316;2023-05-16T00:32:50;97404.7;;;13.33;100
17950;BME280;9100;48.700;9.316;2023-05-16T00:33:50;97407.3;;;13.33;100
17950;BME280;9100;48.700;9.316;2023-05-16T00:34:50;97403.09999999999;;;13.32;100
17950;BME280;9100;48.700;9.316;2023-05-16T00:34:52;97406.7;;;13.31;100
17950;BME280;9100;48.700;9.316;2023-05-16T00:35:50;97412.40000000001;;;13.33;100
17950;BME280;9100;48.700;9.316;2023-05-16T00:36:50;97405.7;;;13.32;100
17950;BME280;9100;48.700;9.316;2023-05-16T00:37:50;97406.7;;;13.31;100
17950;BME280;9100;48.700;9.316;2023-05-16T00:38:50;97410;;;13.32;100
17950;BME280;9100;48.700;9.316;2023-05-16T00:39:50;97407.7;;;13.3;100
17950;BME280;9100;48.700;9.316;2023-05-16T00:39:53;97415.20000000001;;;13.32;100
17950;BME280;9100;48.700;9.316;2023-05-16T00:40:50;97411.8;;;13.31;100
17950;BME280;9100;48.700;9.316;2023-05-16T00:41:50;97410.79999999999;;;13.32;100
17950;BME280;9100;48.700;9.316;2023-05-16T00:42:50;97411.40000000001;;;13.34;100
17950;BME280;9100;48.700;9.316;2023-05-16T00:43:50;97401.9;;;13.35;100
17950;BME280;9100;48.700;9.316;2023-05-16T00:44:50;97404.3;;;13.36;100
17950;BME280;9100;48.700;9.316;2023-05-16T00:44:53;97398.2;;;13.37;100
17950;BME280;9100;48.700;9.316;2023-05-16T00:45:50;97410.6;;;13.4;100
17950;BME280;9100;48.700;9.316;2023-05-16T00:46:50;97403.5;;;13.42;100
17950;BME280;9100;48.700;9.316;2023-05-16T00:47:50;97397.2;;;13.45;100
17950;BME280;9100;48.700;9.316;2023-05-16T00:48:50;97403.09999999999;;;13.45;100
17950;BME280;9100;48.700;9.316;2023-05-16T00:49:50;97394.4;;;13.46;100
17950;BME280;9100;48.700;9.316;2023-05-16T00:49:52;97402.09999999999;;;13.46;100
17950;BME280;9100;48.700;9.316;2023-05-16T00:50:50;97399.1;;;13.49;100
17950;BME280;9100;48.700;9.316;2023-05-16T00:51:50;97398.7;;;13.52;100
17950;BME280;9100;48.700;9.316;2023-05-16T00:52:50;97395.2;;;13.53;100
17950;BME280;9100;48.700;9.316;2023-05-16T00:53:50;97396.8;;;13.54;100
17950;BME280;9100;48.700;9.316;2023-05-16T00:54:50;97395.5;;;13.57;100
17950;BME280;9100;48.700;9.316;2023-05-16T00:54:53;97395.7;;;13.55;100
17950;BME280;9100;48.700;9.316;2023-05-16T00:55:50;97392.7;;;13.58;100
17950;BME280;9100;48.700;9.316;2023-05-16T00:56:50;97390;;;13.6;100
17950;BME280;9100;48.700;9.316;2023-05-16T00:57:50;97395.9;;;13.6;100
17950;BME280;9100;48.700;9.316;2023-05-16T00:58:50;97392.4;;;13.62;100
17950;BME280;9100;48.700;9.316;2023-05-16T00:59:50;97393.2;;;13.62;100
17950;BME280;9100;48.700;9.316;2023-05-16T00:59:52;97398.29999999999;;;13.62;100
17950;BME280;9100;48.700;9.316;2023-05-16T01:00:50;97396.5;;;13.63;100
17950;BME280;9100;48.700;9.316;2023-05-16T01:01:50;97392.4;;;13.62;100
17950;BME280;9100;48.700;9.316;2023-05-16T01:02:50;97390.8;;;13.6;100
17950;BME280;9100;48.700;9.316;2023-05-16T01:03:50;97394.3;;;13.59;100
17950;BME280;9100;48.700;9.316;2023-05-16T01:04:50;97390.20000000001;;;13.58;100
17950;BME280;9100;48.700;9.316;2023-05-16T01:04:53;97392.7;;;13.58;100
17950;BME280;9100;48.700;9.316;2023-05-16T01:05:50;97393;;;13.57;100
17950;BME280;9100;48.700;9.316;2023-05-16T01:06:50;97397.29999999999;;;13.56;100
17950;BME280;9100;48.700;9.316;2023-05-16T01:07:50;97393.2;;;13.55;100
17950;BME280;9100;48.700;9.316;2023-05-16T01:08:50;97389;;;13.54;100
17950;BME280;9100;48.700;9.316;2023-05-16T01:09:50;97397.90000000001;;;13.52;100
17950;BME280;9100;48.700;9.316;2023-05-16T01:09:52;97398.7;;;13.52;100
17950;BME280;9100;48.700;9.316;2023-05-16T01:10:52;97397.1;;;13.51;100
17950;BME280;9100;48.700;9.316;2023-05-16T01:11:51;97396.40000000001;;;13.51;100
17950;BME280;9100;48.700;9.316;2023-05-16T01:12:53;97391.4;;;13.49;100
17950;BME280;9100;48.700;9.316;2023-05-16T01:13:52;97391.4;;;13.49;100
17950;BME280;9100;48.700;9.316;2023-05-16T01:14:50;97394;;;13.49;100
17950;BME280;9100;48.700;9.316;2023-05-16T01:14:55;97394;;;13.49;100
17950;BME280;9100;48.700;9.316;2023-05-16T01:15:53;97391.2;;;13.51;100
17950;BME280;9100;48.700;9.316;2023-05-16T01:16:52;97389.59999999999;;;13.5;100
17950;BME280;9100;48.700;9.316;2023-05-16T01:17:52;97395;;;13.48;100
17950;BME280;9100;48.700;9.316;2023-05-16T01:18:51;97388.3;;;13.47;100
17950;BME280;9100;48.700;9.316;2023-05-16T01:19:54;97387.7;;;13.45;100
17950;BME280;9100;48.700;9.316;2023-05-16T01:19:55;97384.3;;;13.45;100
17950;BME280;9100;48.700;9.316;2023-05-16T01:20:52;97384.1;;;13.46;100
17950;BME280;9100;48.700;9.316;2023-05-16T01:21:52;97382.5;;;13.45;100
17950;BME280;9100;48.700;9.316;2023-05-16T01:22:52;97386.1;;;13.44;100
17950;BME280;9100;48.700;9.316;2023-05-16T01:23:51;97380.2;;;13.44;100
17950;BME280;9100;48.700;9.316;2023-05-16T01:24:54;97387.09999999999;;;13.43;100
17950;BME280;9100;48.700;9.316;2023-05-16T01:25:01;97394.8;;;13.43;100
17950;BME280;9100;48.700;9.316;2023-05-16T01:25:55;97382;;;13.43;100
17950;BME280;9100;48.700;9.316;2023-05-16T01:26:50;97387.09999999999;;;13.43;100
17950;BME280;9100;48.700;9.316;2023-05-16T01:27:50;97387.09999999999;;;13.43;100
17950;BME280;9100;48.700;9.316;2023-05-16T01:28:50;97387.09999999999;;;13.43;100
17950;BME280;9100;48.700;9.316;2023-05-16T01:29:54;97390.8;;;13.41;100
17950;BME280;9100;48.700;9.316;2023-05-16T01:29:54;97388.3;;;13.41;100
17950;BME280;9100;48.700;9.316;2023-05-16T01:30:50;97391.9;;;13.4;100
17950;BME280;9100;48.700;9.316;2023-05-16T01:31:50;97388.5;;;13.39;100
17950;BME280;9100;48.700;9.316;2023-05-16T01:32:50;97389.5;;;13.38;100
17950;BME280;9100;48.700;9.316;2023-05-16T01:33:50;97386.1;;;13.38;100
17950;BME280;9100;48.700;9.316;2023-05-16T01:34:50;97387.90000000001;;;13.37;100
17950;BME280;9100;48.700;9.316;2023-05-16T01:34:53;97385.7;;;13.34;100
17950;BME280;9100;48.700;9.316;2023-05-16T01:35:52;97398.40000000001;;;13.36;100
17950;BME280;9100;48.700;9.316;2023-05-16T01:36:52;97396.6;;;13.36;100
17950;BME280;9100;48.700;9.316;2023-05-16T01:37:51;97400.2;;;13.35;100
17950;BME280;9100;48.700;9.316;2023-05-16T01:38:55;97397.79999999999;;;13.34;100
17950;BME280;9100;48.700;9.316;2023-05-16T01:39:51;97398.2;;;13.31;100
17950;BME280;9100;48.700;9.316;2023-05-16T01:39:54;97390.5;;;13.31;100
17950;BME280;9100;48.700;9.316;2023-05-16T01:40:51;97399;;;13.31;100
17950;BME280;9100;48.700;9.316;2023-05-16T01:41:53;97399.2;;;13.3;100
17950;BME280;9100;48.700;9.316;2023-05-16T01:42:50;97406.1;;;13.29;100
17950;BME280;9100;48.700;9.316;2023-05-16T01:43:51;97398.8;;;13.26;100
17950;BME280;9100;48.700;9.316;2023-05-16T01:44:52;97389.9;;;13.22;100
17950;BME280;9100;48.700;9.316;2023-05-16T01:44:54;97397.6;;;13.22;100
17950;BME280;9100;48.700;9.316;2023-05-16T01:45:52;97391.9;;;13.2;100
17950;BME280;9100;48.700;9.316;2023-05-16T01:46:51;97395.4;;;13.19;100
17950;BME280;9100;48.700;9.316;2023-05-16T01:47:51;97398;;;13.19;100
17950;BME280;9100;48.700;9.316;2023-05-16T01:48:51;97392.9;;;13.19;100
17950;BME280;9100;48.700;9.316;2023-05-16T01:49:53;97398;;;13.19;100
17950;BME280;9100;48.700;9.316;2023-05-16T01:49:54;97396;;;13.21;100
17950;BME280;9100;48.700;9.316;2023-05-16T01:50:51;97396;;;13.21;100
17950;BME280;9100;48.700;9.316;2023-05-16T01:51:51;97395;;;13.22;100
17950;BME280;9100;48.700;9.316;2023-05-16T01:52:51;97398.2;;;13.24;100
17950;BME280;9100;48.700;9.316;2023-05-16T01:53:50;97394.6;;;13.25;100
17950;BME280;9100;48.700;9.316;2023-05-16T01:54:51;97401.59999999999;;;13.25;100
17950;BME280;9100;48.700;9.316;2023-05-16T01:54:53;97399;;;13.25;100
17950;BME280;9100;48.700;9.316;2023-05-16T01:55:50;97398.2;;;13.24;100
17950;BME280;9100;48.700;9.316;2023-05-16T01:56:51;97392.9;;;13.26;100
17950;BME280;9100;48.700;9.316;2023-05-16T01:57:50;97394.6;;;13.25;100
17950;BME280;9100;48.700;9.316;2023-05-16T01:58:50;97392.1;;;13.25;100
17950;BME280;9100;48.700;9.316;2023-05-16T01:59:50;97398;;;13.26;100
17950;BME280;9100;48.700;9.316;2023-05-16T01:59:52;97396.40000000001;;;13.25;100
17950;BME280;9100;48.700;9.316;2023-05-16T02:00:51;97400.40000000001;;;13.27;100
17950;BME280;9100;48.700;9.316;2023-05-16T02:01:51;97389.3;;;13.27;100
17950;BME280;9100;48.700;9.316;2023-05-16T02:02:50;97399.59999999999;;;13.27;100
17950;BME280;9100;48.700;9.316;2023-05-16T02:03:51;97347.5;;;12.93;100
17950;BME280;9100;48.700;9.316;2023-05-16T02:04:50;97397.2;;;13.25;100
17950;BME280;9100;48.700;9.316;2023-05-16T02:04:53;97403.9;;;13.26;100
17950;BME280;9100;48.700;9.316;2023-05-16T02:05:50;97399.59999999999;;;13.27;100
17950;BME280;9100;48.700;9.316;2023-05-16T02:06:50;97402.3;;;13.25;100
17950;BME280;9100;48.700;9.316;2023-05-16T02:07:50;97398.40000000001;;;13.23;100
17950;BME280;9100;48.700;9.316;2023-05-16T02:08:50;97404.7;;;13.2;100
17950;BME280;9100;48.700;9.316;2023-05-16T02:09:50;97402.59999999999;;;13.17;100
17950;BME280;9100;48.700;9.316;2023-05-16T02:09:53;97401.59999999999;;;13.18;100
17950;BME280;9100;48.700;9.316;2023-05-16T02:10:50;97400;;;13.17;100
17950;BME280;9100;48.700;9.316;2023-05-16T02:11:50;97404.1;;;13.18;100
17950;BME280;9100;48.700;9.316;2023-05-16T02:12:50;97402.4;;;13.19;100
17950;BME280;9100;48.700;9.316;2023-05-16T02:13:50;97405.1;;;13.17;100
17950;BME280;9100;48.700;9.316;2023-05-16T02:14:50;97401.8;;;13.17;100
17950;BME280;9100;48.700;9.316;2023-05-16T02:14:52;97398.40000000001;;;13.16;100
17950;BME280;9100;48.700;9.316;2023-05-16T02:15:50;97400.8;;;13.18;100
17950;BME280;9100;48.700;9.316;2023-05-16T02:16:50;97399.2;;;13.17;100
17950;BME280;9100;48.700;9.316;2023-05-16T02:17:50;97399.2;;;13.17;100
17950;BME280;9100;48.700;9.316;2023-05-16T02:18:50;97401;;;13.16;100
17950;BME280;9100;48.700;9.316;2023-05-16T02:19:50;97403.59999999999;;;13.16;100
17950;BME280;9100;48.700;9.316;2023-05-16T02:19:52;97399.2;;;13.17;100
17950;BME280;9100;48.700;9.316;2023-05-16T02:20:50;97399.2;;;13.17;100
17950;BME280;9100;48.700;9.316;2023-05-16T02:21:50;97404.3;;;13.17;100
17950;BME280;9100;48.700;9.316;2023-05-16T02:22:50;97402.8;;;13.16;100
17950;BME280;9100;48.700;9.316;2023-05-16T02:23:50;97406.3;;;13.15;100
17950;BME280;9100;48.700;9.316;2023-05-16T02:24:50;97405.3;;;13.16;100
17950;BME280;9100;48.700;9.316;2023-05-16T02:24:53;97399.40000000001;;;13.15;100
17950;BME280;9100;48.700;9.316;2023-05-16T02:25:50;97403.59999999999;;;13.16;100
17950;BME280;9100;48.700;9.316;2023-05-16T02:26:50;97400;;;13.17;100
17950;BME280;9100;48.700;9.316;2023-05-16T02:27:50;97401;;;13.16;100
17950;BME280;9100;48.700;9.316;2023-05-16T02:28:50;97404.5;;;13.15;100
17950;BME280;9100;48.700;9.316;2023-05-16T02:29:50;97404.9;;;13.12;100
17950;BME280;9100;48.700;9.316;2023-05-16T02:29:52;97398.2;;;13.11;100
17950;BME280;9100;48.700;9.316;2023-05-16T02:30:54;97403.4;;;13.11;100
17950;BME280;9100;48.700;9.316;2023-05-16T02:31:50;97407.1;;;13.08;100
17950;BME280;9100;48.700;9.316;2023-05-16T02:32:51;97399.59999999999;;;13.07;100
17950;BME280;9100;48.700;9.316;2023-05-16T02:33:50;97395.6;;;13.04;100
17950;BME280;9100;48.700;9.316;2023-05-16T02:34:50;97398.40000000001;;;13.03;100
17950;BME280;9100;48.700;9.316;2023-05-16T02:34:52;97398.40000000001;;;13.03;100
17950;BME280;9100;48.700;9.316;2023-05-16T02:35:50;97402;;;13.02;100
17950;BME280;9100;48.700;9.316;2023-05-16T02:36:50;97405.1;;;13.04;100
17950;BME280;9100;48.700;9.316;2023-05-16T02:37:50;97401;;;13.03;100
17950;BME280;9100;48.700;9.316;2023-05-16T02:38:50;97401.8;;;13.03;100
17950;BME280;9100;48.700;9.316;2023-05-16T02:39:50;97398.6;;;13.01;100
17950;BME280;9100;48.700;9.316;2023-05-16T02:39:52;97401.2;;;13.01;100
17950;BME280;9100;48.700;9.316;2023-05-16T02:40:50;97403.5;;;13.03;100
17950;BME280;9100;48.700;9.316;2023-05-16T02:41:50;97399.2;;;13.03;100
17950;BME280;9100;48.700;9.316;2023-05-16T02:42:50;97402.4;;;13.05;100
17950;BME280;9100;48.700;9.316;2023-05-16T02:43:50;97398.8;;;13.06;100
17950;BME280;9100;48.700;9.316;2023-05-16T02:44:50;97403.2;;;13.06;100
17950;BME280;9100;48.700;9.316;2023-05-16T02:44:53;97400.8;;;13.04;100
17950;BME280;9100;48.700;9.316;2023-05-16T02:45:50;97402;;;13.08;100
17950;BME280;9100;48.700;9.316;2023-05-16T02:46:50;97397.6;;;13.09;100
17950;BME280;9100;48.700;9.316;2023-05-16T02:47:50;97402;;;13.08;100
17950;BME280;9100;48.700;9.316;2023-05-16T02:48:50;97402;;;13.08;100
17950;BME280;9100;48.700;9.316;2023-05-16T02:49:50;97403.7;;;13.08;100
17950;BME280;9100;48.700;9.316;2023-05-16T02:49:52;97403.7;;;13.08;100
17950;BME280;9100;48.700;9.316;2023-05-16T02:50:50;97401.2;;;13.08;100
17950;BME280;9100;48.700;9.316;2023-05-16T02:51:50;97403.7;;;13.08;100
17950;BME280;9100;48.700;9.316;2023-05-16T02:52:50;97404.7;;;13.07;100
17950;BME280;9100;48.700;9.316;2023-05-16T02:53:50;97409.79999999999;;;13.07;100
17950;BME280;9100;48.700;9.316;2023-05-16T02:54:50;97408.3;;;13.06;100
17950;BME280;9100;48.700;9.316;2023-05-16T02:54:53;97398;;;13.06;100
17950;BME280;9100;48.700;9.316;2023-05-16T02:55:50;97403.7;;;13.08;100
17950;BME280;9100;48.700;9.316;2023-05-16T02:56:50;97405.5;;;13.07;100
17950;BME280;9100;48.700;9.316;2023-05-16T02:57:50;97400.2;;;13.09;100
17950;BME280;9100;48.700;9.316;2023-05-16T02:58:52;97400.2;;;13.09;100
17950;BME280;9100;48.700;9.316;2023-05-16T02:59:50;97399.2;;;13.1;100
17950;BME280;9100;48.700;9.316;2023-05-16T02:59:53;97402;;;13.08;100
17950;BME280;9100;48.700;9.316;2023-05-16T03:00:50;97395.7;;;13.11;100
17950;BME280;9100;48.700;9.316;2023-05-16T03:01:50;97395.7;;;13.11;100
17950;BME280;9100;48.700;9.316;2023-05-16T03:02:50;97390.5;;;13.11;100
17950;BME280;9100;48.700;9.316;2023-05-16T03:03:50;97399.8;;;13.12;100
17950;BME280;9100;48.700;9.316;2023-05-16T03:04:50;97395.5;;;13.13;100
17950;BME280;9100;48.700;9.316;2023-05-16T03:04:52;97392.9;;;13.13;100
17950;BME280;9100;48.700;9.316;2023-05-16T03:05:50;97392.1;;;13.12;100
17950;BME280;9100;48.700;9.316;2023-05-16T03:06:50;97391.3;;;13.11;100
17950;BME280;9100;48.700;9.316;2023-05-16T03:07:50;97393.7;;;13.13;100
17950;BME280;9100;48.700;9.316;2023-05-16T03:08:50;97394.3;;;13.15;100
17950;BME280;9100;48.700;9.316;2023-05-16T03:09:50;97404.7;;;13.14;100
17950;BME280;9100;48.700;9.316;2023-05-16T03:09:53;97399.59999999999;;;13.14;100
17950;BME280;9100;48.700;9.316;2023-05-16T03:10:50;97400.40000000001;;;13.14;100
17950;BME280;9100;48.700;9.316;2023-05-16T03:11:50;97391.09999999999;;;13.13;100
17950;BME280;9100;48.700;9.316;2023-05-16T03:12:50;97396.5;;;13.11;100
17950;BME280;9100;48.700;9.316;2023-05-16T03:13:50;97402.8;;;13.09;100
17950;BME280;9100;48.700;9.316;2023-05-16T03:14:50;97401.59999999999;;;13.05;100
17950;BME280;9100;48.700;9.316;2023-05-16T03:14:52;97399;;;13.05;100
17950;BME280;9100;48.700;9.316;2023-05-16T03:15:50;97402.5;;;13.04;100
17950;BME280;9100;48.700;9.316;2023-05-16T03:16:50;97393.3;;;13.03;100
17950;BME280;9100;48.700;9.316;2023-05-16T03:17:50;97393.3;;;13.03;100
17950;BME280;9100;48.700;9.316;2023-05-16T03:18:50;97399.2;;;13.03;100
17950;BME280;9100;48.700;9.316;2023-05-16T03:19:50;97405.3;;;13.02;100
17950;BME280;9100;48.700;9.316;2023-05-16T03:19:53;97396.8;;;13.02;100
17950;BME280;9100;48.700;9.316;2023-05-16T03:20:50;97398.40000000001;;;13.03;100
17950;BME280;9100;48.700;9.316;2023-05-16T03:21:50;97403.5;;;13.03;100
17950;BME280;9100;48.700;9.316;2023-05-16T03:22:50;97400.2;;;13.02;100
17950;BME280;9100;48.700;9.316;2023-05-16T03:23:50;97399.40000000001;;;13.02;100
17950;BME280;9100;48.700;9.316;2023-05-16T03:24:50;97398.8;;;13;100
17950;BME280;9100;48.700;9.316;2023-05-16T03:24:53;97396.2;;;13;100
17950;BME280;9100;48.700;9.316;2023-05-16T03:25:50;97401.4;;;13;100
17950;BME280;9100;48.700;9.316;2023-05-16T03:26:50;97396.2;;;13;100
17950;BME280;9100;48.700;9.316;2023-05-16T03:27:50;97399.59999999999;;;13;100
17950;BME280;9100;48.700;9.316;2023-05-16T03:28:50;97402.8;;;13.02;100
17950;BME280;9100;48.700;9.316;2023-05-16T03:29:50;97405.5;;;13.01;100
17950;BME280;9100;48.700;9.316;2023-05-16T03:29:53;97408.1;;;13.01;100
17950;BME280;9100;48.700;9.316;2023-05-16T03:30:50;97400.40000000001;;;13.01;100
17950;BME280;9100;48.700;9.316;2023-05-16T03:31:50;97407.5;;;12.99;100
17950;BME280;9100;48.700;9.316;2023-05-16T03:32:50;97399.8;;;12.99;100
17950;BME280;9100;48.700;9.316;2023-05-16T03:33:50;97403.9;;;13;100
17950;BME280;9100;48.700;9.316;2023-05-16T03:34:50;97404.3;;;12.97;100
17950;BME280;9100;48.700;9.316;2023-05-16T03:34:53;97405.1;;;12.97;100
17950;BME280;9100;48.700;9.316;2023-05-16T03:35:50;97402.8;;;12.96;100
17950;BME280;9100;48.700;9.316;2023-05-16T03:36:50;97406.1;;;12.96;100
17950;BME280;9100;48.700;9.316;2023-05-16T03:37:50;97402;;;12.95;100
17950;BME280;9100;48.700;9.316;2023-05-16T03:38:50;97409.5;;;12.97;100
17950;BME280;9100;48.700;9.316;2023-05-16T03:39:50;97407.9;;;12.96;100
17950;BME280;9100;48.700;9.316;2023-05-16T03:39:53;97407.9;;;12.96;100
17950;BME280;9100;48.700;9.316;2023-05-16T03:40:50;97405.3;;;12.96;100
17950;BME280;9100;48.700;9.316;2023-05-16T03:41:50;97407.1;;;12.95;100
17950;BME280;9100;48.700;9.316;2023-05-16T03:42:50;97412;;;12.97;100
17950;BME280;9100;48.700;9.316;2023-05-16T03:43:50;97406.3;;;12.95;100
17950;BME280;9100;48.700;9.316;2023-05-16T03:44:50;97404;;;12.93;100
17950;BME280;9100;48.700;9.316;2023-05-16T03:44:53;97407.3;;;12.94;100
17950;BME280;9100;48.700;9.316;2023-05-16T03:45:50;97399;;;12.92;100
17950;BME280;9100;48.700;9.316;2023-05-16T03:46:50;97406.7;;;12.92;100
17950;BME280;9100;48.700;9.316;2023-05-16T03:47:50;97402.59999999999;;;12.91;100
17950;BME280;9100;48.700;9.316;2023-05-16T03:48:50;97406.1;;;12.9;100
17950;BME280;9100;48.700;9.316;2023-05-16T03:49:50;97414;;;12.88;100
17950;BME280;9100;48.700;9.316;2023-05-16T03:49:52;97402;;;12.89;100
17950;BME280;9100;48.700;9.316;2023-05-16T03:50:50;97398.6;;;12.88;100
17950;BME280;9100;48.700;9.316;2023-05-16T03:51:50;97406.7;;;12.85;100
17950;BME280;9100;48.700;9.316;2023-05-16T03:52:50;97404.9;;;12.86;100
17950;BME280;9100;48.700;9.316;2023-05-16T03:53:50;97407.7;;;12.84;100
17950;BME280;9100;48.700;9.316;2023-05-16T03:54:50;97403.59999999999;;;12.83;100
17950;BME280;9100;48.700;9.316;2023-05-16T03:54:53;97411.5;;;12.82;100
17950;BME280;9100;48.700;9.316;2023-05-16T03:55:50;97401.2;;;12.82;100
17950;BME280;9100;48.700;9.316;2023-05-16T03:56:50;97407.9;;;12.83;100
17950;BME280;9100;48.700;9.316;2023-05-16T03:57:50;97410.7;;;12.81;100
17950;BME280;9100;48.700;9.316;2023-05-16T03:58:50;97405.9;;;12.78;100
17950;BME280;9100;48.700;9.316;2023-05-16T03:59:50;97416.2;;;12.78;100
17950;BME280;9100;48.700;9.316;2023-05-16T03:59:53;97414.59999999999;;;12.77;100
17950;BME280;9100;48.700;9.316;2023-05-16T04:00:50;97411.1;;;12.78;100
17950;BME280;9100;48.700;9.316;2023-05-16T04:01:50;97409.5;;;12.77;100
17950;BME280;9100;48.700;9.316;2023-05-16T04:02:50;97415.8;;;12.75;100
17950;BME280;9100;48.700;9.316;2023-05-16T04:03:50;97419.3;;;12.74;100
17950;BME280;9100;48.700;9.316;2023-05-16T04:04:50;97415.4;;;12.71;100
17950;BME280;9100;48.700;9.316;2023-05-16T04:04:53;97409.5;;;12.71;100
17950;BME280;9100;48.700;9.316;2023-05-16T04:05:50;97414.59999999999;;;12.71;100
17950;BME280;9100;48.700;9.316;2023-05-16T04:06:50;97423.29999999999;;;12.7;100
17950;BME280;9100;48.700;9.316;2023-05-16T04:07:50;97413.8;;;12.7;100
17950;BME280;9100;48.700;9.316;2023-05-16T04:08:50;97418.2;;;12.7;100
17950;BME280;9100;48.700;9.316;2023-05-16T04:09:50;97421.7;;;12.69;100
17950;BME280;9100;48.700;9.316;2023-05-16T04:09:53;97421.7;;;12.69;100
17950;BME280;9100;48.700;9.316;2023-05-16T04:10:50;97426.9;;;12.69;100
17950;BME280;9100;48.700;9.316;2023-05-16T04:11:50;97424.3;;;12.69;100
17950;BME280;9100;48.700;9.316;2023-05-16T04:12:50;97429.4;;;12.69;100
17950;BME280;9100;48.700;9.316;2023-05-16T04:13:50;97427.8;;;12.68;100
17950;BME280;9100;48.700;9.316;2023-05-16T04:14:50;97426.5;;;12.65;100
17950;BME280;9100;48.700;9.316;2023-05-16T04:14:53;97427.20000000001;;;12.65;100
17950;BME280;9100;48.700;9.316;2023-05-16T04:15:50;97428;;;12.66;100
17950;BME280;9100;48.700;9.316;2023-05-16T04:16:50;97433.2;;;12.66;100
17950;BME280;9100;48.700;9.316;2023-05-16T04:17:50;97425.3;;;12.68;100
17950;BME280;9100;48.700;9.316;2023-05-16T04:18:50;97434.6;;;12.69;100
17950;BME280;9100;48.700;9.316;2023-05-16T04:19:50;97437.90000000001;;;12.69;100
17950;BME280;9100;48.700;9.316;2023-05-16T04:19:53;97437.09999999999;;;12.69;100
17950;BME280;9100;48.700;9.316;2023-05-16T04:20:50;97436.7;;;12.72;100
17950;BME280;9100;48.700;9.316;2023-05-16T04:21:50;97435;;;12.72;100
17950;BME280;9100;48.700;9.316;2023-05-16T04:22:50;97433.2;;;12.73;100
17950;BME280;9100;48.700;9.316;2023-05-16T04:23:50;97433.2;;;12.73;100
17950;BME280;9100;48.700;9.316;2023-05-16T04:24:50;97431.4;;;12.73;100
17950;BME280;9100;48.700;9.316;2023-05-16T04:24:53;97428.8;;;12.73;100
17950;BME280;9100;48.700;9.316;2023-05-16T04:25:50;97431.2;;;12.75;100
17950;BME280;9100;48.700;9.316;2023-05-16T04:26:50;97432;;;12.75;100
17950;BME280;9100;48.700;9.316;2023-05-16T04:27:50;97429.4;;;12.75;100
17950;BME280;9100;48.700;9.316;2023-05-16T04:28:50;97436.90000000001;;;12.77;100
17950;BME280;9100;48.700;9.316;2023-05-16T04:29:50;97435.90000000001;;;12.78;100
17950;BME280;9100;48.700;9.316;2023-05-16T04:29:53;97432.6;;;12.77;100
17950;BME280;9100;48.700;9.316;2023-05-16T04:30:50;97438.09999999999;;;12.81;100
17950;BME280;9100;48.700;9.316;2023-05-16T04:31:50;97435.2;;;12.84;100
17950;BME280;9100;48.700;9.316;2023-05-16T04:32:50;97433.2;;;12.86;100
17950;BME280;9100;48.700;9.316;2023-05-16T04:33:50;97436.3;;;12.88;100
17950;BME280;9100;48.700;9.316;2023-05-16T04:34:50;97437.09999999999;;;12.88;100